Terminal Aerodrome Forecast
Issued by NWS King Salmon, AK

Home | Current Version | Previous Version | Text Only | Print | Product List | Glossary On
Versions: 1 2 3 4 5 6 7 8 9 10 11 12 13 14 15 16 17 18 19 20 21 22 23 24 25 26 27 28 29 30 31 32 33 34 35 36 37 38 39 40 41 42 43 44 45 46 47 48 49 50
000
FTAK31 PANC 260405 AAC
TAFAKN
TAF AMD
PAKN 260405Z 2604/2624 19008KT P6SM VCSH SCT015 BKN025
      TEMPO 2604/2606 2SM -SHSN BR SCT005 BKN009
     FM260600 18008KT P6SM VCSH SCT025 BKN035
     FM261200 18010G18KT 1 1/2SM -SHSN BR BKN015
     FM261800 23014G22KT P6SM VCSH SCT035 BKN070=

USA.gov is the U.S. government's official web portal to all federal, state and local government web resources and services.